sensor_id;sensor_type;location;lat;lon;timestamp;temperature;humidity
3727;DHT22;1879;45.876;12.300;2023-04-12T00:00:41;10.30;99.90
3727;DHT22;1879;45.876;12.300;2023-04-12T00:03:09;10.40;99.90
3727;DHT22;1879;45.876;12.300;2023-04-12T00:05:36;10.40;99.90
3727;DHT22;1879;45.876;12.300;2023-04-12T00:08:03;10.50;99.90
3727;DHT22;1879;45.876;12.300;2023-04-12T00:10:32;10.50;99.70
3727;DHT22;1879;45.876;12.300;2023-04-12T00:12:59;10.50;99.80
3727;DHT22;1879;45.876;12.300;2023-04-12T00:15:26;10.50;99.90
3727;DHT22;1879;45.876;12.300;2023-04-12T00:17:53;10.60;99.90
3727;DHT22;1879;45.876;12.300;2023-04-12T00:20:20;10.60;99.90
3727;DHT22;1879;45.876;12.300;2023-04-12T00:22:47;10.50;99.90
3727;DHT22;1879;45.876;12.300;2023-04-12T00:25:14;10.60;99.80
3727;DHT22;1879;45.876;12.300;2023-04-12T00:27:42;10.60;99.60
3727;DHT22;1879;45.876;12.300;2023-04-12T00:30:10;10.60;99.50
3727;DHT22;1879;45.876;12.300;2023-04-12T00:32:40;10.50;99.90
3727;DHT22;1879;45.876;12.300;2023-04-12T00:35:07;10.50;99.90
3727;DHT22;1879;45.876;12.300;2023-04-12T00:37:34;10.40;99.90
3727;DHT22;1879;45.876;12.300;2023-04-12T00:40:03;10.40;99.90
3727;DHT22;1879;45.876;12.300;2023-04-12T00:42:32;10.40;99.90
3727;DHT22;1879;45.876;12.300;2023-04-12T00:45:02;10.30;99.90
3727;DHT22;1879;45.876;12.300;2023-04-12T00:47:29;10.30;99.90
3727;DHT22;1879;45.876;12.300;2023-04-12T00:49:58;10.30;99.90
3727;DHT22;1879;45.876;12.300;2023-04-12T00:52:25;10.20;99.90
3727;DHT22;1879;45.876;12.300;2023-04-12T00:54:58;10.20;99.90
3727;DHT22;1879;45.876;12.300;2023-04-12T00:57:26;10.20;99.90
3727;DHT22;1879;45.876;12.300;2023-04-12T00:59:53;10.10;99.90
3727;DHT22;1879;45.876;12.300;2023-04-12T01:02:21;10.10;99.90
3727;DHT22;1879;45.876;12.300;2023-04-12T01:04:48;10.00;99.90
3727;DHT22;1879;45.876;12.300;2023-04-12T01:07:23;10.00;99.90
3727;DHT22;1879;45.876;12.300;2023-04-12T01:09:56;10.00;99.90
3727;DHT22;1879;45.876;12.300;2023-04-12T01:12:35;10.00;99.90
3727;DHT22;1879;45.876;12.300;2023-04-12T01:15:08;10.00;99.90
3727;DHT22;1879;45.876;12.300;2023-04-12T01:17:42;10.00;99.90
3727;DHT22;1879;45.876;12.300;2023-04-12T01:20:14;10.00;99.90
3727;DHT22;1879;45.876;12.300;2023-04-12T01:23:30;10.00;99.90
3727;DHT22;1879;45.876;12.300;2023-04-12T01:26:09;10.00;99.90
3727;DHT22;1879;45.876;12.300;2023-04-12T01:28:42;9.90;99.90
3727;DHT22;1879;45.876;12.300;2023-04-12T01:31:10;9.90;99.90
3727;DHT22;1879;45.876;12.300;2023-04-12T01:33:40;10.00;99.90
3727;DHT22;1879;45.876;12.300;2023-04-12T01:36:11;10.00;99.90
3727;DHT22;1879;45.876;12.300;2023-04-12T01:38:40;10.10;99.90
3727;DHT22;1879;45.876;12.300;2023-04-12T01:41:09;10.10;99.90
3727;DHT22;1879;45.876;12.300;2023-04-12T01:43:41;10.10;99.90
3727;DHT22;1879;45.876;12.300;2023-04-12T01:46:08;10.10;99.90
3727;DHT22;1879;45.876;12.300;2023-04-12T01:48:36;10.10;99.90
3727;DHT22;1879;45.876;12.300;2023-04-12T01:51:05;10.10;99.90
3727;DHT22;1879;45.876;12.300;2023-04-12T01:53:41;10.20;99.90
3727;DHT22;1879;45.876;12.300;2023-04-12T01:56:10;10.10;99.90
3727;DHT22;1879;45.876;12.300;2023-04-12T01:58:39;10.20;99.90
3727;DHT22;1879;45.876;12.300;2023-04-12T02:01:10;10.20;99.90
3727;DHT22;1879;45.876;12.300;2023-04-12T02:03:39;10.20;99.90
3727;DHT22;1879;45.876;12.300;2023-04-12T02:06:08;10.20;99.90
3727;DHT22;1879;45.876;12.300;2023-04-12T02:08:36;10.20;99.90
3727;DHT22;1879;45.876;12.300;2023-04-12T02:11:07;10.20;99.90
3727;DHT22;1879;45.876;12.300;2023-04-12T02:13:35;10.10;99.90
3727;DHT22;1879;45.876;12.300;2023-04-12T02:16:02;10.00;99.90
3727;DHT22;1879;45.876;12.300;2023-04-12T02:18:30;9.90;99.90
3727;DHT22;1879;45.876;12.300;2023-04-12T02:20:57;9.90;99.90
3727;DHT22;1879;45.876;12.300;2023-04-12T02:23:24;9.90;99.90
3727;DHT22;1879;45.876;12.300;2023-04-12T02:25:51;9.70;99.90
3727;DHT22;1879;45.876;12.300;2023-04-12T02:28:18;9.60;99.90
3727;DHT22;1879;45.876;12.300;2023-04-12T02:30:47;9.60;99.90
3727;DHT22;1879;45.876;12.300;2023-04-12T02:33:17;9.50;99.90
3727;DHT22;1879;45.876;12.300;2023-04-12T02:35:47;9.40;99.90
3727;DHT22;1879;45.876;12.300;2023-04-12T02:38:14;9.30;99.90
3727;DHT22;1879;45.876;12.300;2023-04-12T02:40:41;9.30;99.90
3727;DHT22;1879;45.876;12.300;2023-04-12T02:43:08;9.20;99.90
3727;DHT22;1879;45.876;12.300;2023-04-12T02:45:35;9.20;99.90
3727;DHT22;1879;45.876;12.300;2023-04-12T02:48:02;9.30;99.90
3727;DHT22;1879;45.876;12.300;2023-04-12T02:50:30;9.40;99.90
3727;DHT22;1879;45.876;12.300;2023-04-12T02:52:58;9.50;99.90
3727;DHT22;1879;45.876;12.300;2023-04-12T02:55:25;9.50;99.90
3727;DHT22;1879;45.876;12.300;2023-04-12T02:57:52;9.50;99.90
3727;DHT22;1879;45.876;12.300;2023-04-12T03:00:19;9.60;99.90
3727;DHT22;1879;45.876;12.300;2023-04-12T03:02:47;9.70;99.90
3727;DHT22;1879;45.876;12.300;2023-04-12T03:05:15;9.60;99.90
3727;DHT22;1879;45.876;12.300;2023-04-12T03:07:43;9.50;99.90
3727;DHT22;1879;45.876;12.300;2023-04-12T03:10:12;9.50;99.90
3727;DHT22;1879;45.876;12.300;2023-04-12T03:12:39;9.40;99.90
3727;DHT22;1879;45.876;12.300;2023-04-12T03:15:07;9.40;99.90
3727;DHT22;1879;45.876;12.300;2023-04-12T03:17:34;9.40;99.90
3727;DHT22;1879;45.876;12.300;2023-04-12T03:20:05;9.40;99.90
3727;DHT22;1879;45.876;12.300;2023-04-12T03:22:35;9.40;99.90
3727;DHT22;1879;45.876;12.300;2023-04-12T03:25:02;9.40;99.90
3727;DHT22;1879;45.876;12.300;2023-04-12T03:27:31;9.40;99.90
3727;DHT22;1879;45.876;12.300;2023-04-12T03:29:58;9.30;99.90
3727;DHT22;1879;45.876;12.300;2023-04-12T03:32:25;9.30;99.90
3727;DHT22;1879;45.876;12.300;2023-04-12T03:34:52;9.30;99.90
3727;DHT22;1879;45.876;12.300;2023-04-12T03:37:20;9.20;99.90
3727;DHT22;1879;45.876;12.300;2023-04-12T03:39:47;9.20;99.90
3727;DHT22;1879;45.876;12.300;2023-04-12T03:42:14;9.20;99.90
3727;DHT22;1879;45.876;12.300;2023-04-12T03:44:42;9.20;99.90
3727;DHT22;1879;45.876;12.300;2023-04-12T03:47:09;9.30;99.90
3727;DHT22;1879;45.876;12.300;2023-04-12T03:49:36;9.40;99.90
3727;DHT22;1879;45.876;12.300;2023-04-12T03:52:04;9.40;99.90
3727;DHT22;1879;45.876;12.300;2023-04-12T03:54:31;9.50;99.90
3727;DHT22;1879;45.876;12.300;2023-04-12T03:56:58;9.50;99.90
3727;DHT22;1879;45.876;12.300;2023-04-12T03:59:26;9.50;99.90
3727;DHT22;1879;45.876;12.300;2023-04-12T04:01:54;9.40;99.90
3727;DHT22;1879;45.876;12.300;2023-04-12T04:04:22;9.40;99.90
3727;DHT22;1879;45.876;12.300;2023-04-12T04:06:49;9.30;99.90
3727;DHT22;1879;45.876;12.300;2023-04-12T04:09:17;9.10;99.90
3727;DHT22;1879;45.876;12.300;2023-04-12T04:11:44;9.00;99.90
3727;DHT22;1879;45.876;12.300;2023-04-12T04:14:11;8.80;99.90
3727;DHT22;1879;45.876;12.300;2023-04-12T04:16:38;8.80;99.90
3727;DHT22;1879;45.876;12.300;2023-04-12T04:19:06;8.80;99.90
3727;DHT22;1879;45.876;12.300;2023-04-12T04:21:33;8.80;99.90
3727;DHT22;1879;45.876;12.300;2023-04-12T04:24:00;8.90;99.90
3727;DHT22;1879;45.876;12.300;2023-04-12T04:26:28;9.00;99.90
3727;DHT22;1879;45.876;12.300;2023-04-12T04:28:58;9.00;99.90
3727;DHT22;1879;45.876;12.300;2023-04-12T04:31:28;9.10;99.90
3727;DHT22;1879;45.876;12.300;2023-04-12T04:33:59;9.10;99.90
3727;DHT22;1879;45.876;12.300;2023-04-12T04:36:31;9.20;99.90
3727;DHT22;1879;45.876;12.300;2023-04-12T04:38:58;9.20;99.90
3727;DHT22;1879;45.876;12.300;2023-04-12T04:41:25;9.20;99.90
3727;DHT22;1879;45.876;12.300;2023-04-12T04:43:52;9.20;99.90
3727;DHT22;1879;45.876;12.300;2023-04-12T04:46:19;9.30;99.90
3727;DHT22;1879;45.876;12.300;2023-04-12T04:48:47;9.30;99.90
3727;DHT22;1879;45.876;12.300;2023-04-12T04:51:16;9.30;99.90
3727;DHT22;1879;45.876;12.300;2023-04-12T04:53:44;9.30;99.90
3727;DHT22;1879;45.876;12.300;2023-04-12T04:56:11;9.20;99.90
3727;DHT22;1879;45.876;12.300;2023-04-12T04:58:38;9.10;99.90
3727;DHT22;1879;45.876;12.300;2023-04-12T05:01:06;9.10;99.90
3727;DHT22;1879;45.876;12.300;2023-04-12T05:03:33;9.10;99.90
3727;DHT22;1879;45.876;12.300;2023-04-12T05:06:01;9.10;99.90
3727;DHT22;1879;45.876;12.300;2023-04-12T05:08:28;9.20;99.90
3727;DHT22;1879;45.876;12.300;2023-04-12T05:10:57;9.30;99.90
3727;DHT22;1879;45.876;12.300;2023-04-12T05:13:24;9.30;99.90
3727;DHT22;1879;45.876;12.300;2023-04-12T05:15:51;9.50;99.90
3727;DHT22;1879;45.876;12.300;2023-04-12T05:18:17;9.70;99.90
3727;DHT22;1879;45.876;12.300;2023-04-12T05:20:45;9.80;99.90
3727;DHT22;1879;45.876;12.300;2023-04-12T05:23:13;9.90;99.90
3727;DHT22;1879;45.876;12.300;2023-04-12T05:25:44;10.00;99.90
3727;DHT22;1879;45.876;12.300;2023-04-12T05:28:14;10.10;99.90
3727;DHT22;1879;45.876;12.300;2023-04-12T05:30:42;10.20;99.90
3727;DHT22;1879;45.876;12.300;2023-04-12T05:33:09;10.30;99.90
3727;DHT22;1879;45.876;12.300;2023-04-12T05:35:36;10.50;99.90
3727;DHT22;1879;45.876;12.300;2023-04-12T05:38:03;10.60;99.90
3727;DHT22;1879;45.876;12.300;2023-04-12T05:40:30;10.70;99.90
3727;DHT22;1879;45.876;12.300;2023-04-12T05:42:57;10.80;99.90
3727;DHT22;1879;45.876;12.300;2023-04-12T05:45:26;10.90;99.90
3727;DHT22;1879;45.876;12.300;2023-04-12T05:47:54;11.10;99.90
3727;DHT22;1879;45.876;12.300;2023-04-12T05:50:21;11.20;99.90
3727;DHT22;1879;45.876;12.300;2023-04-12T05:52:49;11.30;99.90
3727;DHT22;1879;45.876;12.300;2023-04-12T05:55:18;11.40;99.90
3727;DHT22;1879;45.876;12.300;2023-04-12T05:57:46;11.60;99.90
3727;DHT22;1879;45.876;12.300;2023-04-12T06:00:14;11.60;99.90
3727;DHT22;1879;45.876;12.300;2023-04-12T06:02:45;11.70;99.90
3727;DHT22;1879;45.876;12.300;2023-04-12T06:05:13;11.90;99.90
3727;DHT22;1879;45.876;12.300;2023-04-12T06:07:41;12.00;99.90
3727;DHT22;1879;45.876;12.300;2023-04-12T06:10:13;12.20;99.90
3727;DHT22;1879;45.876;12.300;2023-04-12T06:12:40;12.20;99.90
3727;DHT22;1879;45.876;12.300;2023-04-12T06:15:08;12.30;99.90
3727;DHT22;1879;45.876;12.300;2023-04-12T06:17:36;12.40;99.90
3727;DHT22;1879;45.876;12.300;2023-04-12T06:20:05;12.60;99.90
3727;DHT22;1879;45.876;12.300;2023-04-12T06:22:34;12.80;99.90
3727;DHT22;1879;45.876;12.300;2023-04-12T06:25:01;13.10;99.90
3727;DHT22;1879;45.876;12.300;2023-04-12T06:27:28;13.30;99.90
3727;DHT22;1879;45.876;12.300;2023-04-12T06:29:55;13.50;99.90
3727;DHT22;1879;45.876;12.300;2023-04-12T06:32:22;13.80;99.90
3727;DHT22;1879;45.876;12.300;2023-04-12T06:34:52;14.00;99.40
3727;DHT22;1879;45.876;12.300;2023-04-12T06:37:20;14.10;99.00
3727;DHT22;1879;45.876;12.300;2023-04-12T06:39:47;14.30;98.30
3727;DHT22;1879;45.876;12.300;2023-04-12T06:42:14;14.50;97.60
3727;DHT22;1879;45.876;12.300;2023-04-12T06:44:41;14.60;96.60
3727;DHT22;1879;45.876;12.300;2023-04-12T06:47:08;14.70;96.40
3727;DHT22;1879;45.876;12.300;2023-04-12T06:49:36;14.70;95.10
3727;DHT22;1879;45.876;12.300;2023-04-12T06:52:03;14.70;93.90
3727;DHT22;1879;45.876;12.300;2023-04-12T06:54:32;14.70;93.30
3727;DHT22;1879;45.876;12.300;2023-04-12T06:56:59;14.80;93.20
3727;DHT22;1879;45.876;12.300;2023-04-12T06:59:27;14.90;92.60
3727;DHT22;1879;45.876;12.300;2023-04-12T07:01:54;15.00;92.40
3727;DHT22;1879;45.876;12.300;2023-04-12T07:04:21;15.00;91.90
3727;DHT22;1879;45.876;12.300;2023-04-12T07:06:47;15.10;91.50
3727;DHT22;1879;45.876;12.300;2023-04-12T07:09:14;15.20;91.40
3727;DHT22;1879;45.876;12.300;2023-04-12T07:11:43;15.30;91.40
3727;DHT22;1879;45.876;12.300;2023-04-12T07:14:10;15.50;91.30
3727;DHT22;1879;45.876;12.300;2023-04-12T07:16:37;15.60;91.20
3727;DHT22;1879;45.876;12.300;2023-04-12T07:19:04;15.80;90.80
3727;DHT22;1879;45.876;12.300;2023-04-12T07:21:31;15.90;90.70
3727;DHT22;1879;45.876;12.300;2023-04-12T07:24:00;16.00;89.60
3727;DHT22;1879;45.876;12.300;2023-04-12T07:26:27;16.00;88.10
3727;DHT22;1879;45.876;12.300;2023-04-12T07:28:56;16.00;87.50
3727;DHT22;1879;45.876;12.300;2023-04-12T07:31:23;16.10;87.00
3727;DHT22;1879;45.876;12.300;2023-04-12T07:33:50;16.10;86.80
3727;DHT22;1879;45.876;12.300;2023-04-12T07:36:17;16.20;85.60
3727;DHT22;1879;45.876;12.300;2023-04-12T07:38:45;16.30;85.40
3727;DHT22;1879;45.876;12.300;2023-04-12T07:41:13;16.50;85.20
3727;DHT22;1879;45.876;12.300;2023-04-12T07:43:40;16.60;83.90
3727;DHT22;1879;45.876;12.300;2023-04-12T07:46:08;16.70;83.30
3727;DHT22;1879;45.876;12.300;2023-04-12T07:48:35;16.80;83.10
3727;DHT22;1879;45.876;12.300;2023-04-12T07:51:03;16.80;82.90
3727;DHT22;1879;45.876;12.300;2023-04-12T07:53:33;16.90;81.40
3727;DHT22;1879;45.876;12.300;2023-04-12T07:56:00;16.90;81.00
3727;DHT22;1879;45.876;12.300;2023-04-12T07:58:31;17.00;81.20
3727;DHT22;1879;45.876;12.300;2023-04-12T08:00:58;17.10;79.70
3727;DHT22;1879;45.876;12.300;2023-04-12T08:03:26;17.20;79.10
3727;DHT22;1879;45.876;12.300;2023-04-12T08:05:53;17.30;77.60
3727;DHT22;1879;45.876;12.300;2023-04-12T08:08:21;17.30;78.00
3727;DHT22;1879;45.876;12.300;2023-04-12T08:10:49;17.50;76.70
3727;DHT22;1879;45.876;12.300;2023-04-12T08:13:16;17.80;76.60
3727;DHT22;1879;45.876;12.300;2023-04-12T08:15:43;17.90;74.90
3727;DHT22;1879;45.876;12.300;2023-04-12T08:18:11;17.90;74.20
3727;DHT22;1879;45.876;12.300;2023-04-12T08:20:40;18.00;73.00
3727;DHT22;1879;45.876;12.300;2023-04-12T08:23:09;18.00;71.90
3727;DHT22;1879;45.876;12.300;2023-04-12T08:25:36;17.90;71.10
3727;DHT22;1879;45.876;12.300;2023-04-12T08:28:03;17.80;70.70
3727;DHT22;1879;45.876;12.300;2023-04-12T08:30:31;18.00;78.70
3727;DHT22;1879;45.876;12.300;2023-04-12T08:32:58;18.40;80.60
3727;DHT22;1879;45.876;12.300;2023-04-12T08:35:25;18.40;71.80
3727;DHT22;1879;45.876;12.300;2023-04-12T08:37:54;18.50;71.40
3727;DHT22;1879;45.876;12.300;2023-04-12T08:40:21;18.50;69.50
3727;DHT22;1879;45.876;12.300;2023-04-12T08:42:50;18.50;69.10
3727;DHT22;1879;45.876;12.300;2023-04-12T08:45:18;18.50;66.30
3727;DHT22;1879;45.876;12.300;2023-04-12T08:47:48;18.50;66.20
3727;DHT22;1879;45.876;12.300;2023-04-12T08:50:15;18.50;66.30
3727;DHT22;1879;45.876;12.300;2023-04-12T08:52:42;18.60;66.50
3727;DHT22;1879;45.876;12.300;2023-04-12T08:55:13;18.60;66.20
3727;DHT22;1879;45.876;12.300;2023-04-12T08:57:41;18.70;66.20
3727;DHT22;1879;45.876;12.300;2023-04-12T09:00:09;18.70;65.30
3727;DHT22;1879;45.876;12.300;2023-04-12T09:02:38;18.80;65.00
3727;DHT22;1879;45.876;12.300;2023-04-12T09:05:07;18.80;64.90
3727;DHT22;1879;45.876;12.300;2023-04-12T09:07:35;18.70;65.20
3727;DHT22;1879;45.876;12.300;2023-04-12T09:10:02;18.70;65.50
3727;DHT22;1879;45.876;12.300;2023-04-12T09:12:31;18.70;65.90
3727;DHT22;1879;45.876;12.300;2023-04-12T09:15:06;18.70;66.10
3727;DHT22;1879;45.876;12.300;2023-04-12T09:17:34;18.80;66.80
3727;DHT22;1879;45.876;12.300;2023-04-12T09:20:21;19.00;65.40
3727;DHT22;1879;45.876;12.300;2023-04-12T09:22:50;18.90;63.30
3727;DHT22;1879;45.876;12.300;2023-04-12T09:25:35;19.10;63.00
3727;DHT22;1879;45.876;12.300;2023-04-12T09:28:16;19.20;63.70
3727;DHT22;1879;45.876;12.300;2023-04-12T09:30:44;19.40;64.80
3727;DHT22;1879;45.876;12.300;2023-04-12T09:33:16;19.50;63.40
3727;DHT22;1879;45.876;12.300;2023-04-12T09:35:44;19.50;63.40
3727;DHT22;1879;45.876;12.300;2023-04-12T09:38:11;19.50;62.20
3727;DHT22;1879;45.876;12.300;2023-04-12T09:40:38;19.40;61.40
3727;DHT22;1879;45.876;12.300;2023-04-12T09:43:07;19.30;60.50
3727;DHT22;1879;45.876;12.300;2023-04-12T09:45:35;19.30;60.70
3727;DHT22;1879;45.876;12.300;2023-04-12T09:48:04;19.20;60.50
3727;DHT22;1879;45.876;12.300;2023-04-12T09:50:32;19.30;60.40
3727;DHT22;1879;45.876;12.300;2023-04-12T09:53:00;19.30;60.10
3727;DHT22;1879;45.876;12.300;2023-04-12T09:55:28;19.20;58.50
3727;DHT22;1879;45.876;12.300;2023-04-12T09:58:00;19.20;59.10
3727;DHT22;1879;45.876;12.300;2023-04-12T10:00:30;19.40;59.20
3727;DHT22;1879;45.876;12.300;2023-04-12T10:02:58;19.50;59.20
3727;DHT22;1879;45.876;12.300;2023-04-12T10:05:26;19.70;59.50
3727;DHT22;1879;45.876;12.300;2023-04-12T10:07:53;19.70;58.30
3727;DHT22;1879;45.876;12.300;2023-04-12T10:10:22;19.70;58.90
3727;DHT22;1879;45.876;12.300;2023-04-12T10:12:49;20.00;59.10
3727;DHT22;1879;45.876;12.300;2023-04-12T10:15:16;20.10;57.10
3727;DHT22;1879;45.876;12.300;2023-04-12T10:17:48;19.80;55.50
3727;DHT22;1879;45.876;12.300;2023-04-12T10:20:18;19.80;54.80
3727;DHT22;1879;45.876;12.300;2023-04-12T10:22:47;20.10;55.80
3727;DHT22;1879;45.876;12.300;2023-04-12T10:25:18;20.60;55.00
3727;DHT22;1879;45.876;12.300;2023-04-12T10:27:48;20.80;52.70
3727;DHT22;1879;45.876;12.300;2023-04-12T10:30:24;20.60;52.40
3727;DHT22;1879;45.876;12.300;2023-04-12T10:33:15;20.40;53.10
3727;DHT22;1879;45.876;12.300;2023-04-12T10:38:45;19.50;50.30
3727;DHT22;1879;45.876;12.300;2023-04-12T10:41:17;19.30;51.90
3727;DHT22;1879;45.876;12.300;2023-04-12T10:43:46;19.10;51.80
3727;DHT22;1879;45.876;12.300;2023-04-12T10:49:21;19.20;51.30
3727;DHT22;1879;45.876;12.300;2023-04-12T10:52:11;19.40;51.90
3727;DHT22;1879;45.876;12.300;2023-04-12T10:54:44;19.50;50.80
3727;DHT22;1879;45.876;12.300;2023-04-12T10:57:42;19.40;51.40
3727;DHT22;1879;45.876;12.300;2023-04-12T11:00:13;19.30;52.80
3727;DHT22;1879;45.876;12.300;2023-04-12T11:03:07;19.00;52.90
3727;DHT22;1879;45.876;12.300;2023-04-12T11:06:04;18.90;53.20
3727;DHT22;1879;45.876;12.300;2023-04-12T11:08:38;19.00;53.50
3727;DHT22;1879;45.876;12.300;2023-04-12T11:11:19;19.20;52.80
3727;DHT22;1879;45.876;12.300;2023-04-12T11:13:49;19.30;53.90
3727;DHT22;1879;45.876;12.300;2023-04-12T11:16:21;19.50;53.80
3727;DHT22;1879;45.876;12.300;2023-04-12T11:18:49;20.00;54.20
3727;DHT22;1879;45.876;12.300;2023-04-12T11:21:21;20.40;53.40
3727;DHT22;1879;45.876;12.300;2023-04-12T11:23:51;20.50;52.40
3727;DHT22;1879;45.876;12.300;2023-04-12T11:26:21;20.70;52.60
3727;DHT22;1879;45.876;12.300;2023-04-12T11:28:50;20.90;52.30
3727;DHT22;1879;45.876;12.300;2023-04-12T11:31:21;20.80;51.70
3727;DHT22;1879;45.876;12.300;2023-04-12T11:33:51;20.70;51.20
3727;DHT22;1879;45.876;12.300;2023-04-12T11:36:25;20.50;50.80
3727;DHT22;1879;45.876;12.300;2023-04-12T11:38:54;20.60;50.80
3727;DHT22;1879;45.876;12.300;2023-04-12T11:41:22;21.00;52.00
3727;DHT22;1879;45.876;12.300;2023-04-12T11:43:52;21.10;51.80
3727;DHT22;1879;45.876;12.300;2023-04-12T11:46:20;20.90;51.00
3727;DHT22;1879;45.876;12.300;2023-04-12T11:48:50;21.20;51.00
3727;DHT22;1879;45.876;12.300;2023-04-12T11:51:19;21.10;51.10
3727;DHT22;1879;45.876;12.300;2023-04-12T11:53:55;21.20;51.10
3727;DHT22;1879;45.876;12.300;2023-04-12T11:56:25;21.30;50.10
3727;DHT22;1879;45.876;12.300;2023-04-12T11:58:55;21.50;49.70
3727;DHT22;1879;45.876;12.300;2023-04-12T12:01:23;21.50;49.30
3727;DHT22;1879;45.876;12.300;2023-04-12T12:03:53;21.50;49.70
3727;DHT22;1879;45.876;12.300;2023-04-12T12:06:23;21.50;48.70
3727;DHT22;1879;45.876;12.300;2023-04-12T12:08:55;21.40;48.40
3727;DHT22;1879;45.876;12.300;2023-04-12T12:11:24;21.30;49.50
3727;DHT22;1879;45.876;12.300;2023-04-12T12:13:54;21.00;50.20
3727;DHT22;1879;45.876;12.300;2023-04-12T12:16:26;20.80;50.80
3727;DHT22;1879;45.876;12.300;2023-04-12T12:18:55;20.70;50.30
3727;DHT22;1879;45.876;12.300;2023-04-12T12:21:25;20.40;50.00
3727;DHT22;1879;45.876;12.300;2023-04-12T12:23:55;20.40;50.90
3727;DHT22;1879;45.876;12.300;2023-04-12T12:26:25;20.20;50.80
3727;DHT22;1879;45.876;12.300;2023-04-12T12:28:56;20.00;51.10
3727;DHT22;1879;45.876;12.300;2023-04-12T12:31:27;19.90;50.80
3727;DHT22;1879;45.876;12.300;2023-04-12T12:33:59;20.10;51.40
3727;DHT22;1879;45.876;12.300;2023-04-12T12:36:31;20.10;50.60
3727;DHT22;1879;45.876;12.300;2023-04-12T12:39:07;19.80;49.90
3727;DHT22;1879;45.876;12.300;2023-04-12T12:41:38;19.90;50.60
3727;DHT22;1879;45.876;12.300;2023-04-12T12:44:08;20.10;50.90
3727;DHT22;1879;45.876;12.300;2023-04-12T12:46:48;20.20;51.10
3727;DHT22;1879;45.876;12.300;2023-04-12T12:49:17;20.20;50.60
3727;DHT22;1879;45.876;12.300;2023-04-12T12:51:47;20.00;50.70
3727;DHT22;1879;45.876;12.300;2023-04-12T12:54:28;19.90;50.40
3727;DHT22;1879;45.876;12.300;2023-04-12T12:56:57;19.70;50.90
3727;DHT22;1879;45.876;12.300;2023-04-12T12:59:26;19.70;50.90
3727;DHT22;1879;45.876;12.300;2023-04-12T13:01:56;19.80;51.00
3727;DHT22;1879;45.876;12.300;2023-04-12T13:04:25;19.60;51.10
3727;DHT22;1879;45.876;12.300;2023-04-12T13:06:55;19.40;50.90
3727;DHT22;1879;45.876;12.300;2023-04-12T13:09:26;19.20;51.70
3727;DHT22;1879;45.876;12.300;2023-04-12T13:11:54;19.10;51.60
3727;DHT22;1879;45.876;12.300;2023-04-12T13:14:23;19.00;51.70
3727;DHT22;1879;45.876;12.300;2023-04-12T13:16:52;18.80;51.60
3727;DHT22;1879;45.876;12.300;2023-04-12T13:19:20;18.70;52.30
3727;DHT22;1879;45.876;12.300;2023-04-12T13:21:48;18.70;52.30
3727;DHT22;1879;45.876;12.300;2023-04-12T13:24:17;18.70;52.60
3727;DHT22;1879;45.876;12.300;2023-04-12T13:26:47;18.70;52.30
3727;DHT22;1879;45.876;12.300;2023-04-12T13:29:16;18.70;52.40
3727;DHT22;1879;45.876;12.300;2023-04-12T13:31:45;18.70;53.10
3727;DHT22;1879;45.876;12.300;2023-04-12T13:34:14;18.70;52.90
3727;DHT22;1879;45.876;12.300;2023-04-12T13:36:43;18.70;53.20
3727;DHT22;1879;45.876;12.300;2023-04-12T13:39:11;18.50;53.20
3727;DHT22;1879;45.876;12.300;2023-04-12T13:41:40;18.50;53.20
3727;DHT22;1879;45.876;12.300;2023-04-12T13:44:11;18.50;53.50
3727;DHT22;1879;45.876;12.300;2023-04-12T13:46:39;18.50;53.20
3727;DHT22;1879;45.876;12.300;2023-04-12T13:49:09;18.50;53.10
3727;DHT22;1879;45.876;12.300;2023-04-12T13:51:38;18.50;53.30
3727;DHT22;1879;45.876;12.300;2023-04-12T13:54:07;18.50;53.50
3727;DHT22;1879;45.876;12.300;2023-04-12T13:56:36;18.60;54.00
3727;DHT22;1879;45.876;12.300;2023-04-12T13:59:04;18.60;53.20
3727;DHT22;1879;45.876;12.300;2023-04-12T14:01:35;18.50;53.10
3727;DHT22;1879;45.876;12.300;2023-04-12T14:04:04;18.60;53.80
3727;DHT22;1879;45.876;12.300;2023-04-12T14:06:33;18.60;53.20
3727;DHT22;1879;45.876;12.300;2023-04-12T14:09:02;18.50;53.10
3727;DHT22;1879;45.876;12.300;2023-04-12T14:11:44;18.50;53.90
3727;DHT22;1879;45.876;12.300;2023-04-12T14:14:14;18.50;53.60
3727;DHT22;1879;45.876;12.300;2023-04-12T14:16:45;18.70;53.70
3727;DHT22;1879;45.876;12.300;2023-04-12T14:19:14;18.70;53.70
3727;DHT22;1879;45.876;12.300;2023-04-12T14:21:43;18.60;53.70
3727;DHT22;1879;45.876;12.300;2023-04-12T14:24:11;18.60;53.70
3727;DHT22;1879;45.876;12.300;2023-04-12T14:26:40;18.50;53.50
3727;DHT22;1879;45.876;12.300;2023-04-12T14:29:11;18.50;53.30
3727;DHT22;1879;45.876;12.300;2023-04-12T14:31:39;18.50;53.40
3727;DHT22;1879;45.876;12.300;2023-04-12T14:34:10;18.40;53.20
3727;DHT22;1879;45.876;12.300;2023-04-12T14:36:38;18.40;53.60
3727;DHT22;1879;45.876;12.300;2023-04-12T14:39:07;18.40;53.40
3727;DHT22;1879;45.876;12.300;2023-04-12T14:41:36;18.40;53.90
3727;DHT22;1879;45.876;12.300;2023-04-12T14:44:05;18.50;54.00
3727;DHT22;1879;45.876;12.300;2023-04-12T14:46:37;18.50;53.90
3727;DHT22;1879;45.876;12.300;2023-04-12T14:49:05;18.60;53.50
3727;DHT22;1879;45.876;12.300;2023-04-12T14:51:37;18.50;53.50
3727;DHT22;1879;45.876;12.300;2023-04-12T14:54:07;18.50;54.00
3727;DHT22;1879;45.876;12.300;2023-04-12T14:56:36;18.30;53.30
3727;DHT22;1879;45.876;12.300;2023-04-12T14:59:04;18.40;53.70
3727;DHT22;1879;45.876;12.300;2023-04-12T15:01:33;18.30;52.90
3727;DHT22;1879;45.876;12.300;2023-04-12T15:04:03;18.40;53.40
3727;DHT22;1879;45.876;12.300;2023-04-12T15:06:35;18.40;53.90
3727;DHT22;1879;45.876;12.300;2023-04-12T15:09:09;18.40;54.20
3727;DHT22;1879;45.876;12.300;2023-04-12T15:11:37;18.50;54.20
3727;DHT22;1879;45.876;12.300;2023-04-12T15:14:15;18.50;54.10
3727;DHT22;1879;45.876;12.300;2023-04-12T15:16:46;18.60;53.80
3727;DHT22;1879;45.876;12.300;2023-04-12T15:19:16;18.70;53.80
3727;DHT22;1879;45.876;12.300;2023-04-12T15:21:48;18.70;53.60
3727;DHT22;1879;45.876;12.300;2023-04-12T15:24:17;18.60;53.40
3727;DHT22;1879;45.876;12.300;2023-04-12T15:26:48;18.50;53.20
3727;DHT22;1879;45.876;12.300;2023-04-12T15:29:19;18.60;53.50
3727;DHT22;1879;45.876;12.300;2023-04-12T15:31:49;18.60;53.70
3727;DHT22;1879;45.876;12.300;2023-04-12T15:34:18;18.80;53.90
3727;DHT22;1879;45.876;12.300;2023-04-12T15:36:50;18.80;53.80
3727;DHT22;1879;45.876;12.300;2023-04-12T15:39:19;18.80;53.30
3727;DHT22;1879;45.876;12.300;2023-04-12T15:41:47;18.70;53.20
3727;DHT22;1879;45.876;12.300;2023-04-12T15:44:17;18.70;53.60
3727;DHT22;1879;45.876;12.300;2023-04-12T15:46:46;18.70;53.70
3727;DHT22;1879;45.876;12.300;2023-04-12T15:49:16;18.70;53.60
3727;DHT22;1879;45.876;12.300;2023-04-12T15:51:44;18.70;53.80
3727;DHT22;1879;45.876;12.300;2023-04-12T15:54:15;18.60;53.70
3727;DHT22;1879;45.876;12.300;2023-04-12T15:56:44;18.60;53.80
3727;DHT22;1879;45.876;12.300;2023-04-12T15:59:14;18.60;53.60
3727;DHT22;1879;45.876;12.300;2023-04-12T16:01:45;18.50;53.60
3727;DHT22;1879;45.876;12.300;2023-04-12T16:04:14;18.50;53.90
3727;DHT22;1879;45.876;12.300;2023-04-12T16:06:44;18.50;53.60
3727;DHT22;1879;45.876;12.300;2023-04-12T16:09:14;18.50;53.90